createdAt,value
2022-08-17T00:02:25.253Z,23.38
2022-08-17T00:04:54.511Z,23.33
2022-08-17T00:07:21.189Z,23.27
2022-08-17T00:09:47.675Z,23.26
2022-08-17T00:12:42.998Z,23.22
2022-08-17T00:15:01.044Z,23.20
2022-08-17T00:17:27.849Z,23.19
2022-08-17T00:19:54.322Z,23.16
2022-08-17T00:25:11.983Z,23.12
2022-08-17T00:27:38.442Z,23.11
2022-08-17T00:30:08.671Z,23.11
2022-08-17T00:33:15.641Z,23.09
2022-08-17T00:35:27.825Z,23.06
2022-08-17T00:37:54.392Z,23.06
2022-08-17T00:40:21.593Z,23.05
2022-08-17T00:42:51.968Z,23.10
2022-08-17T00:45:20.314Z,23.11
2022-08-17T00:47:47.385Z,23.10
2022-08-17T00:50:16.926Z,23.10
2022-08-17T00:52:50.894Z,23.05
2022-08-17T00:55:22.187Z,23.03
2022-08-17T00:57:55.161Z,23.02
2022-08-17T01:00:28.685Z,23.05
2022-08-17T01:03:00.179Z,23.07
2022-08-17T01:05:29.415Z,23.06
2022-08-17T01:07:55.979Z,23.04
2022-08-17T01:10:58.657Z,23.02
2022-08-17T01:13:24.399Z,22.96
2022-08-17T01:16:00.083Z,22.87
2022-08-17T01:18:27.562Z,22.83
2022-08-17T01:20:57.495Z,22.80
2022-08-17T01:23:26.038Z,22.78
2022-08-17T01:25:56.705Z,22.75
2022-08-17T01:28:52.317Z,22.68
2022-08-17T01:31:13.635Z,22.62
2022-08-17T01:33:40.249Z,22.62
2022-08-17T01:36:07.361Z,22.62
2022-08-17T01:38:38.609Z,22.60
2022-08-17T01:41:18.410Z,22.56
2022-08-17T01:43:50.898Z,22.43
2022-08-17T01:46:23.169Z,22.38
2022-08-17T01:48:51.134Z,22.39
2022-08-17T01:51:17.731Z,22.34
2022-08-17T01:53:52.291Z,22.34
2022-08-17T01:56:21.562Z,22.35
2022-08-17T01:58:48.633Z,22.34
2022-08-17T02:01:21.667Z,22.33
2022-08-17T02:03:53.511Z,22.32
2022-08-17T02:06:28.912Z,22.32
2022-08-17T02:09:01.656Z,22.32
2022-08-17T02:11:30.996Z,22.31
2022-08-17T02:14:03.404Z,22.26
2022-08-17T02:16:37.189Z,22.23
2022-08-17T02:19:07.363Z,22.27
2022-08-17T02:21:34.172Z,22.34
2022-08-17T02:24:00.785Z,22.29
2022-08-17T02:26:27.326Z,22.27
2022-08-17T02:28:53.899Z,22.26
2022-08-17T02:31:21.221Z,22.25
2022-08-17T02:33:47.762Z,22.20
2022-08-17T02:36:30.040Z,22.14
2022-08-17T02:38:56.944Z,22.09
2022-08-17T02:41:23.438Z,22.12
2022-08-17T02:43:49.907Z,22.14
2022-08-17T02:46:16.346Z,22.13
2022-08-17T02:48:42.810Z,22.12
2022-08-17T02:51:10.628Z,22.11
2022-08-17T02:53:37.223Z,22.12
2022-08-17T02:56:04.207Z,22.13
2022-08-17T02:58:35.535Z,22.14
2022-08-17T03:01:07.805Z,22.18
2022-08-17T03:03:35.974Z,22.17
2022-08-17T03:06:03.227Z,22.12
2022-08-17T03:08:30.701Z,22.10
2022-08-17T03:10:57.255Z,22.11
2022-08-17T03:13:24.094Z,22.11
2022-08-17T03:15:50.874Z,22.13
2022-08-17T03:18:25.684Z,22.16
2022-08-17T03:20:55.674Z,22.20
2022-08-17T03:23:24.001Z,22.25
2022-08-17T03:25:52.802Z,22.28
2022-08-17T03:28:20.534Z,22.25
2022-08-17T03:30:47.082Z,22.27
2022-08-17T03:33:13.684Z,22.31
2022-08-17T03:35:40.568Z,22.25
2022-08-17T03:38:09.028Z,22.24
2022-08-17T03:40:57.509Z,22.30
2022-08-17T03:43:23.141Z,22.30
2022-08-17T03:46:11.061Z,22.36
2022-08-17T03:49:13.987Z,22.37
2022-08-17T03:51:58.978Z,22.41
2022-08-17T03:54:44.114Z,22.42
2022-08-17T03:57:12.184Z,22.43
2022-08-17T03:59:38.808Z,22.43
2022-08-17T04:02:11.119Z,22.43
2022-08-17T04:04:38.799Z,22.40
2022-08-17T04:07:05.871Z,22.37
2022-08-17T04:09:32.430Z,22.30
2022-08-17T04:12:02.414Z,22.32
2022-08-17T04:14:36.079Z,22.29
2022-08-17T04:17:06.285Z,22.22
2022-08-17T04:19:33.010Z,22.25
2022-08-17T04:21:59.475Z,22.28
2022-08-17T04:24:27.125Z,22.33
2022-08-17T04:26:54.794Z,22.28
2022-08-17T04:29:21.541Z,22.23
2022-08-17T04:31:48.172Z,22.22
2022-08-17T04:34:14.716Z,22.23
2022-08-17T04:36:50.259Z,22.24
2022-08-17T04:39:17.170Z,22.24
2022-08-17T04:42:02.282Z,22.25
2022-08-17T04:44:37.730Z,22.28
2022-08-17T04:47:05.022Z,22.30
2022-08-17T04:49:32.502Z,22.35
2022-08-17T04:52:04.373Z,22.31
2022-08-17T04:54:31.691Z,22.11
2022-08-17T04:56:58.170Z,21.87
2022-08-17T04:59:24.848Z,21.78
2022-08-17T05:01:51.917Z,21.72
2022-08-17T05:04:34.396Z,21.53
2022-08-17T05:07:02.113Z,21.52
2022-08-17T05:09:28.976Z,21.44
2022-08-17T05:11:56.252Z,21.39
2022-08-17T05:14:33.097Z,21.30
2022-08-17T05:17:00.403Z,21.34
2022-08-17T05:19:28.403Z,21.46
2022-08-17T05:21:54.824Z,21.52
2022-08-17T05:24:43.070Z,21.61
2022-08-17T05:27:08.589Z,21.63
2022-08-17T05:29:35.633Z,21.66
2022-08-17T05:32:38.734Z,21.62
2022-08-17T05:35:00.451Z,21.64
2022-08-17T05:37:27.263Z,21.68
2022-08-17T05:39:56.674Z,21.72
2022-08-17T05:42:24.009Z,21.68
2022-08-17T05:44:50.468Z,21.73
2022-08-17T05:47:18.276Z,21.75
2022-08-17T05:49:44.899Z,21.77
2022-08-17T05:52:33.762Z,21.71
2022-08-17T05:55:09.930Z,21.65
2022-08-17T05:57:56.146Z,21.71
2022-08-17T06:00:30.838Z,21.71
2022-08-17T06:03:27.359Z,21.73
2022-08-17T06:06:25.199Z,21.80
2022-08-17T06:09:51.691Z,21.88
2022-08-17T06:12:56.036Z,22.00
2022-08-17T06:15:32.062Z,22.11
2022-08-17T06:18:02.714Z,22.19
2022-08-17T06:20:38.378Z,22.27
2022-08-17T06:23:10.655Z,22.31
2022-08-17T06:25:44.975Z,22.30
2022-08-17T06:28:24.214Z,22.30
2022-08-17T06:31:00.876Z,22.29
2022-08-17T06:33:34.194Z,22.27
2022-08-17T06:36:26.318Z,22.23
2022-08-17T06:38:59.740Z,22.12
2022-08-17T06:41:46.109Z,22.05
2022-08-17T06:44:49.866Z,22.02
2022-08-17T06:47:28.831Z,22.18
2022-08-17T06:50:05.451Z,22.41
2022-08-17T06:52:46.676Z,22.56
2022-08-17T06:55:26.189Z,22.95
2022-08-17T06:57:59.473Z,23.06
2022-08-17T07:00:33.702Z,23.10
2022-08-17T07:03:22.518Z,23.00
2022-08-17T07:06:05.490Z,22.86
2022-08-17T07:08:49.763Z,22.64
2022-08-17T07:11:27.410Z,22.52
2022-08-17T07:14:24.462Z,22.50
2022-08-17T07:16:55.270Z,22.29
2022-08-17T07:19:26.414Z,22.27
2022-08-17T07:22:22.766Z,22.19
2022-08-17T07:24:51.508Z,22.31
2022-08-17T07:27:33.791Z,22.57
2022-08-17T07:30:10.844Z,22.92
2022-08-17T07:32:50.997Z,23.15
2022-08-17T07:35:40.642Z,23.19
2022-08-17T07:38:24.957Z,23.26
2022-08-17T07:41:05.832Z,23.39
2022-08-17T07:43:44.805Z,23.36
2022-08-17T07:46:29.733Z,23.26
2022-08-17T07:49:17.991Z,22.86
2022-08-17T07:51:45.487Z,22.90
2022-08-17T07:54:15.026Z,22.99
2022-08-17T07:57:00.324Z,23.08
2022-08-17T07:59:38.474Z,23.19
2022-08-17T08:02:33.910Z,23.20
2022-08-17T08:05:06.573Z,23.12
2022-08-17T08:07:55.806Z,23.35
2022-08-17T08:10:29.807Z,23.32
2022-08-17T08:13:06.229Z,23.03
2022-08-17T08:15:36.717Z,23.30
2022-08-17T08:18:18.631Z,23.54
2022-08-17T08:21:10.710Z,23.69
2022-08-17T08:23:37.199Z,23.85
2022-08-17T08:26:14.124Z,24.18
2022-08-17T08:29:14.672Z,24.52
2022-08-17T08:31:52.239Z,24.56
2022-08-17T08:35:00.848Z,24.72
2022-08-17T08:37:47.306Z,25.28
2022-08-17T08:40:25.550Z,25.89
2022-08-17T08:43:16.239Z,26.05
2022-08-17T08:45:57.883Z,26.23
2022-08-17T08:48:52.890Z,26.06
2022-08-17T08:51:34.570Z,25.51
2022-08-17T08:54:28.420Z,25.55
2022-08-17T09:00:10.543Z,25.89
2022-08-17T09:03:04.700Z,26.20
2022-08-17T09:06:33.382Z,26.38
2022-08-17T09:09:04.699Z,26.54
2022-08-17T09:12:01.272Z,26.53
2022-08-17T09:14:47.519Z,26.47
2022-08-17T09:17:39.655Z,26.48
2022-08-17T09:20:28.189Z,26.54
2022-08-17T09:23:15.384Z,26.40
2022-08-17T09:26:16.881Z,25.98
2022-08-17T09:28:50.511Z,26.58
2022-08-17T09:31:48.735Z,27.07
2022-08-17T09:34:19.039Z,27.22
2022-08-17T09:36:55.567Z,27.38
2022-08-17T09:39:36.193Z,27.29
2022-08-17T09:42:15.718Z,27.11
2022-08-17T09:45:16.061Z,27.12
2022-08-17T09:47:56.522Z,26.91
2022-08-17T09:51:05.013Z,27.35
2022-08-17T09:53:23.003Z,27.45
2022-08-17T09:55:55.706Z,27.32
2022-08-17T09:58:55.400Z,26.97
2022-08-17T10:01:46.821Z,26.75
2022-08-17T10:04:34.815Z,26.68
2022-08-17T10:07:20.946Z,26.68
2022-08-17T10:10:02.602Z,26.83
2022-08-17T10:13:24.739Z,26.79
2022-08-17T10:16:03.482Z,27.05
2022-08-17T10:18:38.792Z,27.06
2022-08-17T10:21:31.309Z,26.85
2022-08-17T10:24:30.430Z,26.91
2022-08-17T10:27:00.182Z,26.98
2022-08-17T10:29:47.531Z,26.96
2022-08-17T10:32:26.729Z,27.04
2022-08-17T10:35:14.627Z,27.08
2022-08-17T10:38:04.889Z,27.37
2022-08-17T10:40:55.920Z,27.35
2022-08-17T10:43:39.454Z,26.81
2022-08-17T10:46:30.547Z,26.97
2022-08-17T10:49:16.807Z,27.01
2022-08-17T10:51:45.903Z,27.13
2022-08-17T10:54:24.579Z,26.95
2022-08-17T10:56:56.686Z,27.19
2022-08-17T10:59:34.978Z,27.19
2022-08-17T11:02:04.447Z,26.98
2022-08-17T11:04:45.334Z,26.94
2022-08-17T11:07:27.891Z,26.86
2022-08-17T11:10:13.343Z,26.25
2022-08-17T11:12:45.721Z,26.66
2022-08-17T11:15:15.662Z,26.84
2022-08-17T11:18:07.738Z,27.00
2022-08-17T11:20:43.573Z,26.71
2022-08-17T11:23:38.757Z,27.07
2022-08-17T11:26:25.733Z,27.26
2022-08-17T11:28:58.827Z,27.32
2022-08-17T11:31:38.823Z,27.24
2022-08-17T11:34:43.336Z,27.34
2022-08-17T11:37:36.699Z,27.52
2022-08-17T11:40:05.914Z,27.57
2022-08-17T11:42:36.176Z,27.90
2022-08-17T11:45:07.593Z,27.90
2022-08-17T11:48:29.131Z,27.51
2022-08-17T11:51:33.700Z,27.59
2022-08-17T11:54:34.736Z,27.71
2022-08-17T11:57:21.376Z,27.82
2022-08-17T11:59:47.816Z,27.67
2022-08-17T12:02:35.437Z,27.73
2022-08-17T12:05:12.299Z,27.89
2022-08-17T12:07:49.278Z,28.21
2022-08-17T12:10:19.310Z,28.41
2022-08-17T12:12:50.089Z,28.58
2022-08-17T12:15:21.433Z,28.66
2022-08-17T12:17:53.862Z,28.83
2022-08-17T12:20:27.700Z,28.81
2022-08-17T12:23:01.007Z,28.66
2022-08-17T12:25:33.988Z,28.61
2022-08-17T12:28:06.594Z,28.44
2022-08-17T12:30:35.419Z,28.27
2022-08-17T12:33:02.484Z,28.21
2022-08-17T12:35:36.147Z,28.17
2022-08-17T12:38:07.331Z,28.16
2022-08-17T12:40:58.034Z,27.99
2022-08-17T12:43:27.514Z,27.96
2022-08-17T12:45:57.295Z,27.90
2022-08-17T12:48:30.950Z,27.74
2022-08-17T12:51:02.817Z,27.60
2022-08-17T12:53:32.113Z,27.50
2022-08-17T12:56:00.187Z,27.23
2022-08-17T12:58:33.127Z,27.02
2022-08-17T13:01:04.588Z,26.92
2022-08-17T13:03:53.214Z,26.78
2022-08-17T13:06:30.088Z,26.76
2022-08-17T13:08:56.756Z,26.71
2022-08-17T13:11:24.819Z,26.74
2022-08-17T13:13:55.044Z,26.73
2022-08-17T13:16:25.698Z,26.66
2022-08-17T13:19:09.561Z,26.52
2022-08-17T13:21:37.856Z,26.56
2022-08-17T13:24:07.745Z,26.55
2022-08-17T13:26:35.606Z,26.48
2022-08-17T13:29:06.562Z,26.44
2022-08-17T13:31:52.413Z,26.42
2022-08-17T13:34:26.702Z,26.29
2022-08-17T13:37:29.409Z,26.09
2022-08-17T13:40:26.638Z,25.79
2022-08-17T13:42:55.418Z,25.70
2022-08-17T13:45:36.094Z,25.70
2022-08-17T13:48:13.635Z,25.65
2022-08-17T13:50:55.627Z,25.61
2022-08-17T13:53:48.985Z,25.40
2022-08-17T13:56:37.746Z,25.18
2022-08-17T13:59:36.293Z,25.08
2022-08-17T14:02:14.078Z,24.89
2022-08-17T14:04:44.026Z,24.79
2022-08-17T14:07:11.390Z,24.69
2022-08-17T14:09:48.514Z,24.62
2022-08-17T14:12:19.873Z,24.59
2022-08-17T14:14:46.414Z,24.58
2022-08-17T14:17:13.263Z,24.56
2022-08-17T14:19:39.804Z,24.53
2022-08-17T14:22:11.513Z,24.57
2022-08-17T14:24:44.643Z,24.53
2022-08-17T14:27:11.952Z,24.58
2022-08-17T14:29:38.779Z,24.61
2022-08-17T14:32:26.933Z,24.62
2022-08-17T14:34:56.555Z,24.65
2022-08-17T14:37:26.252Z,24.63
2022-08-17T14:39:57.750Z,24.64
2022-08-17T14:42:27.051Z,24.63
2022-08-17T14:44:55.076Z,24.63
2022-08-17T14:47:22.248Z,24.61
2022-08-17T14:49:51.486Z,24.58
2022-08-17T14:52:21.550Z,24.51
2022-08-17T14:54:51.245Z,24.46
2022-08-17T14:57:25.150Z,24.39
2022-08-17T15:00:01.300Z,24.31
2022-08-17T15:02:29.751Z,24.29
2022-08-17T15:05:02.183Z,24.27
2022-08-17T15:07:30.929Z,24.26
2022-08-17T15:10:00.658Z,24.24
2022-08-17T15:12:32.319Z,24.21
2022-08-17T15:15:00.551Z,24.14
2022-08-17T15:17:27.095Z,24.11
2022-08-17T15:20:17.294Z,24.05
2022-08-17T15:22:45.457Z,24.07
2022-08-17T15:25:12.514Z,24.08
2022-08-17T15:27:38.959Z,24.00
2022-08-17T15:30:07.252Z,23.86
2022-08-17T15:32:37.857Z,23.95
2022-08-17T15:35:06.058Z,23.78
2022-08-17T15:37:32.525Z,23.76
2022-08-17T15:40:01.142Z,23.70
2022-08-17T15:42:29.240Z,23.64
2022-08-17T15:44:55.852Z,23.55
2022-08-17T15:47:23.119Z,23.64
2022-08-17T15:49:50.681Z,23.64
2022-08-17T15:52:23.354Z,23.64
2022-08-17T15:54:59.711Z,23.28
2022-08-17T15:57:27.253Z,23.39
2022-08-17T15:59:58.631Z,23.45
2022-08-17T16:03:14.923Z,23.36
2022-08-17T16:05:21.959Z,23.34
2022-08-17T16:07:52.488Z,23.35
2022-08-17T16:10:19.664Z,23.25
2022-08-17T16:12:48.415Z,23.25
2022-08-17T16:15:16.322Z,23.23
2022-08-17T16:17:43.045Z,23.30
2022-08-17T16:20:20.029Z,23.38
2022-08-17T16:22:49.147Z,23.18
2022-08-17T16:25:22.782Z,23.16
2022-08-17T16:28:05.430Z,23.23
2022-08-17T16:30:33.107Z,23.30
2022-08-17T16:33:01.513Z,23.17
2022-08-17T16:35:28.029Z,23.19
2022-08-17T16:37:57.040Z,23.11
2022-08-17T16:40:27.408Z,23.11
2022-08-17T16:42:55.253Z,23.06
2022-08-17T16:45:27.238Z,23.05
2022-08-17T16:47:54.928Z,23.12
2022-08-17T16:50:23.409Z,22.94
2022-08-17T16:52:50.950Z,23.07
2022-08-17T16:55:20.585Z,23.04
2022-08-17T16:57:50.650Z,23.09
2022-08-17T17:00:19.194Z,23.15
2022-08-17T17:02:47.569Z,23.18
2022-08-17T17:05:51.323Z,23.06
2022-08-17T17:08:30.279Z,23.17
2022-08-17T17:10:59.982Z,23.29
2022-08-17T17:13:40.814Z,23.31
2022-08-17T17:16:41.433Z,23.32
2022-08-17T17:19:17.803Z,23.41
2022-08-17T17:22:21.711Z,23.50
2022-08-17T17:25:14.174Z,23.35
2022-08-17T17:27:54.921Z,23.32
2022-08-17T17:30:48.199Z,23.33
2022-08-17T17:33:19.076Z,23.39
2022-08-17T17:36:00.108Z,23.37
2022-08-17T17:38:34.145Z,23.33
2022-08-17T17:41:05.434Z,23.31
2022-08-17T17:43:39.603Z,23.32
2022-08-17T17:46:30.539Z,23.32
2022-08-17T17:48:57.820Z,23.34
2022-08-17T17:52:06.745Z,23.33
2022-08-17T17:54:56.250Z,23.35
2022-08-17T17:57:34.694Z,23.31
2022-08-17T18:00:19.058Z,23.26
2022-08-17T18:02:52.847Z,23.23
2022-08-17T18:05:46.902Z,23.16
2022-08-17T18:08:34.366Z,23.16
2022-08-17T18:11:24.389Z,23.09
2022-08-17T18:14:07.650Z,23.03
2022-08-17T18:16:34.344Z,22.95
2022-08-17T18:19:00.920Z,22.96
2022-08-17T18:21:39.081Z,22.99
2022-08-17T18:24:08.375Z,22.84
2022-08-17T18:26:40.034Z,22.83
2022-08-17T18:29:23.898Z,22.87
2022-08-17T18:32:16.022Z,22.80
2022-08-17T18:34:47.665Z,22.71
2022-08-17T18:37:35.260Z,22.72
2022-08-17T18:40:24.036Z,22.70
2022-08-17T18:43:05.505Z,22.66
2022-08-17T18:45:43.162Z,22.65
2022-08-17T18:48:21.058Z,22.67
2022-08-17T18:50:48.062Z,22.61
2022-08-17T18:53:33.199Z,22.63
2022-08-17T18:56:36.100Z,22.63
2022-08-17T18:59:05.060Z,22.64
2022-08-17T19:02:21.589Z,22.67
2022-08-17T19:05:10.982Z,22.67
2022-08-17T19:07:45.242Z,22.64
2022-08-17T19:10:14.901Z,22.66
2022-08-17T19:12:53.087Z,22.67
2022-08-17T19:16:14.206Z,22.62
2022-08-17T19:18:50.853Z,22.57
2022-08-17T19:21:43.321Z,22.58
2022-08-17T19:24:19.279Z,22.59
2022-08-17T19:26:55.587Z,22.57
2022-08-17T19:29:38.391Z,22.57
2022-08-17T19:32:09.074Z,22.57
2022-08-17T19:34:37.154Z,22.54
2022-08-17T19:37:29.964Z,22.45
2022-08-17T19:40:48.851Z,22.44
2022-08-17T19:43:37.846Z,22.47
2022-08-17T19:46:25.974Z,22.46
2022-08-17T19:49:12.713Z,22.47
2022-08-17T19:51:43.753Z,22.44
2022-08-17T19:54:35.536Z,22.40
2022-08-17T19:57:27.119Z,22.42
2022-08-17T20:00:04.415Z,22.39
2022-08-17T20:02:41.302Z,22.39
2022-08-17T20:05:21.280Z,22.34
2022-08-17T20:08:12.321Z,22.35
2022-08-17T20:10:48.102Z,22.35
2022-08-17T20:13:33.564Z,22.31
2022-08-17T20:16:01.049Z,22.30
2022-08-17T20:18:33.489Z,22.26
2022-08-17T20:21:10.015Z,22.26
2022-08-17T20:24:01.552Z,22.25
2022-08-17T20:26:58.012Z,22.23
2022-08-17T20:29:40.268Z,22.20
2022-08-17T20:32:21.493Z,22.10
2022-08-17T20:34:48.317Z,22.07
2022-08-17T20:37:14.704Z,22.01
2022-08-17T20:39:43.047Z,22.00
2022-08-17T20:42:29.794Z,22.02
2022-08-17T20:45:05.156Z,22.01
2022-08-17T20:47:50.444Z,22.01
2022-08-17T20:50:29.624Z,22.01
2022-08-17T20:52:58.966Z,21.97
2022-08-17T20:55:34.269Z,22.00
2022-08-17T20:58:16.051Z,21.99
2022-08-17T21:00:50.214Z,21.94
2022-08-17T21:03:28.603Z,21.86
2022-08-17T21:06:18.378Z,21.77
2022-08-17T21:08:57.764Z,21.75
2022-08-17T21:11:57.032Z,21.71
2022-08-17T21:14:30.977Z,21.69
2022-08-17T21:17:19.003Z,21.65
2022-08-17T21:20:10.740Z,21.64
2022-08-17T21:22:50.516Z,21.65
2022-08-17T21:25:44.809Z,21.69
2022-08-17T21:29:00.640Z,21.70
2022-08-17T21:31:39.883Z,21.70
2022-08-17T21:34:15.386Z,21.71
2022-08-17T21:36:43.767Z,21.69
2022-08-17T21:39:14.451Z,21.71
2022-08-17T21:41:52.726Z,21.69
2022-08-17T21:44:19.287Z,21.62
2022-08-17T21:46:49.333Z,21.63
2022-08-17T21:49:19.492Z,21.64
2022-08-17T21:51:54.079Z,21.65
2022-08-17T21:54:30.769Z,21.64
2022-08-17T21:57:00.625Z,21.60
2022-08-17T21:59:32.858Z,21.53
2022-08-17T22:02:02.195Z,21.44
2022-08-17T22:04:40.796Z,21.33
2022-08-17T22:07:11.225Z,21.33
2022-08-17T22:09:41.244Z,21.32
2022-08-17T22:12:26.124Z,21.30
2022-08-17T22:14:55.452Z,21.26
2022-08-17T22:17:23.930Z,21.19
2022-08-17T22:19:54.306Z,21.20
2022-08-17T22:22:58.297Z,21.22
2022-08-17T22:25:27.281Z,21.21
2022-08-17T22:27:57.329Z,21.22
2022-08-17T22:30:34.371Z,21.24
2022-08-17T22:33:29.361Z,21.30
2022-08-17T22:36:24.645Z,21.27
2022-08-17T22:39:00.137Z,21.23
2022-08-17T22:41:26.546Z,21.27
2022-08-17T22:43:54.087Z,21.28
2022-08-17T22:46:23.816Z,21.28
2022-08-17T22:48:54.770Z,21.32
2022-08-17T22:51:25.548Z,21.36
2022-08-17T22:54:14.684Z,21.37
2022-08-17T22:57:18.734Z,21.34
2022-08-17T22:59:52.708Z,21.35
2022-08-17T23:02:32.084Z,21.36
2022-08-17T23:05:12.669Z,21.35
2022-08-17T23:07:40.621Z,21.36
2022-08-17T23:10:09.866Z,21.30
2022-08-17T23:12:39.921Z,21.24
2022-08-17T23:15:18.918Z,21.22
2022-08-17T23:17:45.881Z,21.25
2022-08-17T23:20:14.992Z,21.27
2022-08-17T23:22:51.265Z,21.32
2022-08-17T23:25:25.531Z,21.26
2022-08-17T23:27:52.336Z,21.28
2022-08-17T23:30:18.964Z,21.29
2022-08-17T23:32:53.801Z,21.21
2022-08-17T23:35:39.806Z,21.20
2022-08-17T23:38:11.825Z,21.19
2022-08-17T23:40:39.740Z,21.16
2022-08-17T23:43:24.058Z,21.13
2022-08-17T23:45:52.897Z,21.14
2022-08-17T23:48:32.645Z,21.17
2022-08-17T23:51:12.675Z,21.17
2022-08-17T23:53:46.315Z,21.19
2022-08-17T23:56:13.521Z,21.22
2022-08-17T23:58:42.632Z,21.25
